Time;durP1;ratioP1;P1;durP2;ratioP2;P2;SDS_P1;SDS_P2;PMS_P1;PMS_P2;Temp;Humidity;BMP_temperature;BMP_pressure;BME280_temperature;BME280_humidity;BME280_pressure;Samples;Min_cycle;Max_cycle;Signal;HPM_P1;HPM_P2
2021/03/27 00:00:22;;;;;;;16.73;11.07;;;9.30;73.70;;;;;;5032943;28;20235;-83
2021/03/27 00:02:58;;;;;;;18.80;10.67;;;9.30;73.70;;;;;;5017513;28;20235;-84
2021/03/27 00:05:42;;;;;;;14.00;11.00;;;9.40;73.50;;;;;;5037331;28;20278;-84
2021/03/27 00:08:33;;;;;;;15.50;11.67;;;9.30;73.50;;;;;;5019576;28;20191;-84
2021/03/27 00:11:14;;;;;;;19.30;10.50;;;9.30;73.60;;;;;;5019309;28;20235;-84
2021/03/27 00:14:09;;;;;;;16.80;10.83;;;9.20;73.70;;;;;;5037153;28;20177;-84
2021/03/27 00:17:03;;;;;;;17.03;10.50;;;9.20;73.60;;;;;;5037413;28;20160;-82
2021/03/27 00:19:54;;;;;;;16.73;10.53;;;9.20;73.80;;;;;;5036888;28;20290;-82
2021/03/27 00:22:51;;;;;;;14.23;9.90;;;9.20;74.10;;;;;;5035737;28;20219;-83
2021/03/27 00:25:37;;;;;;;13.90;10.67;;;9.20;74.20;;;;;;5004768;28;20180;-83
2021/03/27 00:28:17;;;;;;;15.43;10.73;;;9.30;74.00;;;;;;5036846;28;20172;-83
2021/03/27 00:30:51;;;;;;;18.73;10.53;;;9.30;74.00;;;;;;5036678;28;20214;-83
2021/03/27 00:33:36;;;;;;;16.20;10.67;;;9.30;73.80;;;;;;5036846;28;20260;-84
2021/03/27 00:36:22;;;;;;;15.67;11.00;;;9.30;74.00;;;;;;5018948;28;20172;-83
2021/03/27 00:38:59;;;;;;;18.60;11.13;;;9.30;73.60;;;;;;5018994;28;20184;-84
2021/03/27 00:41:54;;;;;;;13.87;11.63;;;9.40;73.60;;;;;;5035271;28;20204;-84
2021/03/27 00:44:34;;;;;;;15.23;10.93;;;9.40;73.20;;;;;;5036544;28;20240;-83
2021/03/27 00:47:14;;;;;;;18.03;12.00;;;9.40;73.40;;;;;;5035263;28;20183;-83
2021/03/27 00:49:56;;;;;;;14.30;11.10;;;9.40;73.80;;;;;;5036737;28;20204;-83
2021/03/27 00:52:29;;;;;;;14.33;10.67;;;9.30;74.30;;;;;;5018640;28;20180;-83
2021/03/27 00:54:57;;;;;;;16.10;11.40;;;9.30;74.30;;;;;;5036585;28;20188;-84
2021/03/27 00:57:31;;;;;;;16.30;10.60;;;9.30;74.00;;;;;;5018640;28;20188;-84
2021/03/27 01:00:24;;;;;;;15.90;10.90;;;9.30;73.80;;;;;;5018440;28;20213;-83
2021/03/27 01:03:00;;;;;;;13.13;11.03;;;9.30;73.80;;;;;;5036202;28;20183;-84
2021/03/27 01:05:32;;;;;;;16.33;11.27;;;9.30;73.80;;;;;;5036729;28;20516;-83
2021/03/27 01:08:01;;;;;;;16.03;10.87;;;9.20;73.70;;;;;;5034823;28;20255;-84
2021/03/27 01:10:37;;;;;;;21.93;12.47;;;9.20;73.70;;;;;;5036282;28;20207;-83
2021/03/27 01:13:11;;;;;;;16.03;11.77;;;9.10;73.80;;;;;;5018228;28;20181;-84
2021/03/27 01:15:49;;;;;;;18.83;11.63;;;9.10;73.90;;;;;;5035488;28;20185;-83
2021/03/27 01:18:22;;;;;;;18.27;11.20;;;9.00;73.80;;;;;;5018284;28;20193;-83
2021/03/27 01:21:04;;;;;;;15.20;11.37;;;9.00;73.90;;;;;;5018087;28;20295;-83
2021/03/27 01:23:33;;;;;;;16.00;11.10;;;9.00;73.80;;;;;;5035933;28;20204;-83
2021/03/27 01:26:04;;;;;;;17.90;11.30;;;8.90;74.00;;;;;;5035769;28;20173;-83
2021/03/27 01:28:54;;;;;;;13.77;11.00;;;8.90;74.30;;;;;;5035708;28;20182;-83
2021/03/27 01:31:41;;;;;;;21.00;12.20;;;8.90;74.30;;;;;;5035559;28;20269;-83
2021/03/27 01:34:34;;;;;;;18.50;11.63;;;8.90;74.30;;;;;;5036084;28;20224;-83
2021/03/27 01:37:14;;;;;;;14.30;9.90;;;8.90;74.20;;;;;;5035714;28;20172;-83
2021/03/27 01:40:23;;;;;;;16.93;10.87;;;8.90;74.20;;;;;;5035960;28;20299;-83
2021/03/27 01:43:12;;;;;;;17.47;10.90;;;8.80;74.20;;;;;;5035442;28;20171;-83
2021/03/27 01:46:02;;;;;;;14.87;10.40;;;8.80;74.60;;;;;;5017621;28;20184;-84
2021/03/27 01:48:44;;;;;;;15.60;10.53;;;8.70;74.70;;;;;;5035755;28;20209;-84
2021/03/27 01:51:33;;;;;;;20.47;10.33;;;8.60;74.90;;;;;;5035234;28;20207;-83
2021/03/27 01:54:14;;;;;;;15.73;10.77;;;8.50;75.20;;;;;;5017556;28;20260;-83
2021/03/27 01:56:54;;;;;;;18.77;10.40;;;8.50;75.30;;;;;;5035287;28;20254;-84
2021/03/27 01:59:50;;;;;;;14.10;10.53;;;8.40;75.60;;;;;;5035160;28;20177;-83
2021/03/27 02:02:31;;;;;;;13.57;9.97;;;8.30;75.90;;;;;;5035241;28;20165;-83
2021/03/27 02:05:20;;;;;;;16.30;10.83;;;8.30;76.40;;;;;;5035227;28;20665;-83
2021/03/27 02:08:07;;;;;;;12.47;9.90;;;8.30;76.60;;;;;;5035427;28;20636;-83
2021/03/27 02:10:52;;;;;;;12.77;9.53;;;8.40;76.40;;;;;;5034970;28;20676;-83
2021/03/27 02:13:43;;;;;;;13.07;9.70;;;8.50;76.10;;;;;;5017150;28;20597;-83
2021/03/27 02:16:29;;;;;;;15.20;10.00;;;8.60;75.70;;;;;;5034977;28;20547;-83
2021/03/27 02:19:25;;;;;;;16.83;9.40;;;8.70;75.20;;;;;;5033781;28;20183;-83
2021/03/27 02:22:13;;;;;;;13.30;9.40;;;8.90;74.60;;;;;;5034935;28;20235;-83
2021/03/27 02:25:13;;;;;;;16.83;9.20;;;9.00;74.00;;;;;;5034816;28;20251;-83
2021/03/27 02:28:04;;;;;;;12.97;8.67;;;9.00;73.70;;;;;;5034338;28;20655;-83
2021/03/27 02:30:48;;;;;;;11.13;8.77;;;9.10;73.40;;;;;;5034467;28;20236;-83
2021/03/27 02:33:41;;;;;;;12.23;9.37;;;9.10;73.40;;;;;;5034863;28;20169;-83
2021/03/27 02:36:14;;;;;;;13.60;8.40;;;9.10;73.10;;;;;;5034646;28;20257;-83
2021/03/27 02:39:21;;;;;;;16.00;8.93;;;9.10;73.30;;;;;;5034679;28;20188;-84
2021/03/27 02:42:14;;;;;;;12.47;8.80;;;9.20;73.10;;;;;;5034373;28;20216;-83
2021/03/27 02:44:54;;;;;;;10.40;8.13;;;9.20;72.80;;;;;;5034480;28;20177;-83
2021/03/27 02:47:44;;;;;;;11.53;8.57;;;9.10;72.80;;;;;;5034355;28;20188;-83
2021/03/27 02:50:35;;;;;;;11.80;8.50;;;9.10;73.00;;;;;;5034195;28;20200;-83
2021/03/27 02:53:21;;;;;;;14.13;8.93;;;9.00;72.90;;;;;;5034228;28;20168;-83
2021/03/27 02:56:13;;;;;;;9.73;7.30;;;9.00;72.90;;;;;;5034459;28;20169;-83
2021/03/27 02:59:05;;;;;;;13.97;7.93;;;9.10;72.40;;;;;;5016372;28;20203;-83
2021/03/27 03:01:44;;;;;;;11.87;7.97;;;9.20;71.60;;;;;;5033988;28;20228;-83
2021/03/27 03:04:43;;;;;;;14.40;7.37;;;9.30;71.30;;;;;;5032704;28;20643;-83
2021/03/27 03:07:30;;;;;;;12.03;6.90;;;9.30;70.90;;;;;;5016342;28;20176;-83
2021/03/27 03:10:09;;;;;;;8.30;6.47;;;9.60;69.40;;;;;;5033941;28;20192;-83
2021/03/27 03:12:49;;;;;;;13.37;6.67;;;9.80;68.50;;;;;;5034073;28;20247;-83
2021/03/27 03:15:26;;;;;;;11.20;6.73;;;9.90;68.00;;;;;;5033784;28;20169;-83
2021/03/27 03:18:28;;;;;;;9.53;6.67;;;9.90;68.30;;;;;;5033752;28;20172;-83
2021/03/27 03:21:24;;;;;;;10.23;6.63;;;9.90;68.00;;;;;;5033519;28;20207;-83
2021/03/27 03:24:24;;;;;;;7.67;5.17;;;10.00;67.60;;;;;;5033717;28;20175;-83
2021/03/27 03:27:10;;;;;;;8.63;5.77;;;10.10;66.90;;;;;;5034028;28;20640;-83
2021/03/27 03:30:04;;;;;;;11.00;7.53;;;10.10;66.90;;;;;;5015654;28;20761;-83
2021/03/27 03:32:54;;;;;;;9.97;6.67;;;10.20;66.90;;;;;;5033792;28;20181;-83
2021/03/27 03:35:48;;;;;;;9.40;6.90;;;10.10;67.60;;;;;;5033669;28;20267;-83
2021/03/27 03:38:41;;;;;;;12.73;8.40;;;10.10;68.90;;;;;;5033444;28;20169;-83
2021/03/27 03:41:46;;;;;;;5.43;4.93;;;10.00;69.00;;;;;;5033323;28;20208;-83
2021/03/27 03:44:35;;;;;;;6.73;5.50;;;9.50;72.40;;;;;;5015559;28;20667;-83
2021/03/27 03:47:27;;;;;;;9.87;5.67;;;9.00;75.70;;;;;;5033270;28;20179;-83
2021/03/27 03:50:22;;;;;;;9.40;6.20;;;8.70;77.70;;;;;;5033768;28;20227;-83
2021/03/27 03:52:47;;;;;;;6.77;5.77;;;8.60;78.80;;;;;;5015537;28;20263;-83
2021/03/27 03:55:33;;;;;;;8.77;6.70;;;8.50;80.20;;;;;;5015561;28;20272;-83
2021/03/27 03:58:28;;;;;;;4.93;4.03;;;8.30;81.50;;;;;;5033308;28;20263;-83
2021/03/27 04:01:29;;;;;;;5.40;3.50;;;8.10;81.70;;;;;;5033582;28;20210;-83
2021/03/27 04:04:18;;;;;;;5.57;4.10;;;7.90;82.60;;;;;;5033765;28;20164;-83
2021/03/27 04:07:02;;;;;;;7.10;3.77;;;7.80;83.60;;;;;;5033500;28;20164;-83
2021/03/27 04:09:44;;;;;;;5.13;4.00;;;7.70;83.60;;;;;;5015416;28;20211;-83
2021/03/27 04:12:25;;;;;;;5.07;3.57;;;7.60;84.40;;;;;;5033138;28;20226;-83
2021/03/27 04:14:58;;;;;;;3.60;2.80;;;7.50;84.90;;;;;;5015396;28;20175;-83
2021/03/27 04:17:43;;;;;;;4.90;2.40;;;7.50;84.40;;;;;;5033174;28;20179;-83
2021/03/27 04:20:41;;;;;;;5.50;2.57;;;7.40;84.30;;;;;;5032941;28;20212;-83
2021/03/27 04:23:33;;;;;;;2.70;1.90;;;7.30;84.30;;;;;;5015170;28;20171;-83
2021/03/27 04:26:27;;;;;;;2.37;1.80;;;7.20;84.70;;;;;;5033327;28;20160;-83
2021/03/27 04:29:34;;;;;;;7.40;1.77;;;7.10;85.10;;;;;;5033034;28;20586;-82
2021/03/27 04:32:19;;;;;;;1.83;1.70;;;7.00;85.40;;;;;;5078435;22;20233;-84
2021/03/27 04:35:00;;;;;;;2.93;1.70;;;6.90;86.40;;;;;;5052785;28;20189;-85
2021/03/27 04:37:50;;;;;;;3.50;2.17;;;6.80;87.20;;;;;;5052716;28;20200;-84
2021/03/27 04:40:34;;;;;;;2.50;2.30;;;6.70;87.60;;;;;;5052763;28;20287;-83
2021/03/27 04:43:19;;;;;;;3.87;2.43;;;6.80;87.70;;;;;;5052645;28;20256;-84
2021/03/27 04:46:20;;;;;;;2.53;2.30;;;6.70;87.50;;;;;;5052766;28;20627;-83
2021/03/27 04:49:14;;;;;;;2.13;1.93;;;6.70;87.50;;;;;;5045142;28;20239;-83
2021/03/27 04:51:54;;;;;;;3.07;2.50;;;6.60;87.10;;;;;;5038470;28;20197;-84
2021/03/27 04:55:00;;;;;;;7.13;2.60;;;6.40;87.80;;;;;;5056352;28;20651;-83
2021/03/27 04:57:46;;;;;;;4.70;2.83;;;6.40;87.80;;;;;;4995226;28;20231;-83
2021/03/27 05:00:20;;;;;;;3.90;3.43;;;6.40;88.60;;;;;;4978559;28;20734;-83
2021/03/27 05:03:17;;;;;;;3.30;3.03;;;6.40;88.40;;;;;;5034894;28;20189;-83
2021/03/27 05:05:57;;;;;;;4.07;3.60;;;6.30;88.10;;;;;;5038234;28;20176;-83
2021/03/27 05:08:59;;;;;;;3.43;3.13;;;6.30;88.10;;;;;;5056093;28;20656;-83
2021/03/27 05:11:49;;;;;;;5.83;3.90;;;6.20;88.10;;;;;;5038105;28;20195;-83
2021/03/27 05:14:47;;;;;;;5.07;3.63;;;6.20;88.30;;;;;;5055908;28;20176;-83
2021/03/27 05:17:49;;;;;;;8.87;5.40;;;6.20;88.20;;;;;;5056120;28;20180;-83
2021/03/27 05:20:34;;;;;;;7.83;5.97;;;6.20;88.50;;;;;;5055667;28;20261;-83
2021/03/27 05:23:18;;;;;;;10.80;7.23;;;6.10;88.50;;;;;;5055864;28;20169;-83
2021/03/27 05:25:54;;;;;;;9.63;7.17;;;6.10;88.70;;;;;;5037810;28;20180;-83
2021/03/27 05:28:45;;;;;;;8.13;6.50;;;6.10;88.60;;;;;;5037874;28;20242;-83
2021/03/27 05:31:38;;;;;;;9.43;6.73;;;6.10;88.80;;;;;;5055422;28;20215;-83
2021/03/27 05:34:34;;;;;;;7.93;6.13;;;6.10;89.10;;;;;;5055865;28;20192;-83
2021/03/27 05:37:19;;;;;;;5.77;5.17;;;6.10;89.00;;;;;;5037847;28;20172;-83
2021/03/27 05:40:22;;;;;;;9.27;5.57;;;6.10;89.00;;;;;;5037615;28;20287;-82
2021/03/27 05:43:07;;;;;;;5.97;4.90;;;6.00;89.00;;;;;;5055485;28;20171;-83
2021/03/27 05:46:08;;;;;;;5.10;4.60;;;6.00;88.70;;;;;;5055377;28;20195;-83
2021/03/27 05:49:21;;;;;;;6.40;4.47;;;6.00;88.60;;;;;;5037460;28;20171;-83
2021/03/27 05:52:24;;;;;;;4.77;3.87;;;6.00;88.50;;;;;;5055231;28;20207;-82
2021/03/27 05:55:24;;;;;;;4.60;3.70;;;6.00;88.60;;;;;;5055208;28;20171;-83
2021/03/27 05:58:18;;;;;;;5.77;3.87;;;6.00;88.10;;;;;;5055210;28;20172;-83
2021/03/27 06:01:19;;;;;;;4.47;3.63;;;6.00;88.10;;;;;;5055120;28;20214;-83
2021/03/27 06:04:34;;;;;;;3.63;3.10;;;6.00;88.40;;;;;;5037124;28;20525;-83
2021/03/27 06:07:29;;;;;;;6.30;3.50;;;6.00;88.20;;;;;;5037071;28;20172;-82
2021/03/27 06:10:19;;;;;;;5.57;3.63;;;6.00;88.00;;;;;;5054854;28;20199;-82
2021/03/27 06:13:13;;;;;;;4.10;3.60;;;6.00;88.40;;;;;;5036802;28;20259;-83
2021/03/27 06:16:14;;;;;;;3.40;3.10;;;6.00;88.40;;;;;;5054796;28;20176;-83
2021/03/27 06:19:20;;;;;;;4.00;3.60;;;6.00;88.40;;;;;;5054842;28;20217;-83
2021/03/27 06:22:29;;;;;;;6.27;4.23;;;6.00;88.20;;;;;;5036709;28;20298;-82
2021/03/27 06:25:32;;;;;;;5.87;3.80;;;6.00;88.40;;;;;;5053689;28;20219;-83
2021/03/27 06:28:34;;;;;;;4.30;3.27;;;6.00;88.60;;;;;;5036747;28;20272;-83
2021/03/27 06:31:28;;;;;;;4.80;4.27;;;6.00;88.40;;;;;;5054436;28;20207;-83
2021/03/27 06:34:23;;;;;;;5.03;4.30;;;6.00;88.50;;;;;;5054419;28;20594;-83
2021/03/27 06:37:06;;;;;;;5.13;4.63;;;6.10;88.40;;;;;;5054933;28;20639;-83
2021/03/27 06:39:58;;;;;;;10.27;5.53;;;6.10;88.60;;;;;;5054439;28;20188;-83
2021/03/27 06:43:04;;;;;;;6.93;5.53;;;6.10;88.90;;;;;;5054326;28;20168;-83
2021/03/27 06:46:03;;;;;;;8.90;6.60;;;6.10;88.90;;;;;;5054172;28;20176;-84
2021/03/27 06:48:57;;;;;;;6.03;5.40;;;6.00;88.60;;;;;;5054369;28;20156;-83
2021/03/27 06:51:39;;;;;;;3.10;2.60;;;6.00;88.60;;;;;;5036191;28;20203;-83
2021/03/27 06:54:40;;;;;;;6.00;2.63;;;5.90;87.40;;;;;;5036605;28;20618;-83
2021/03/27 06:57:24;;;;;;;5.03;1.80;;;5.80;86.30;;;;;;5054320;28;20243;-83
2021/03/27 07:00:21;;;;;;;4.37;1.93;;;5.60;85.70;;;;;;5053997;28;20187;-84
2021/03/27 07:03:16;;;;;;;5.97;2.47;;;5.50;86.00;;;;;;5036153;28;20257;-83
2021/03/27 07:06:04;;;;;;;3.87;1.90;;;5.40;86.00;;;;;;5053038;28;20262;-83
2021/03/27 07:08:56;;;;;;;3.63;1.70;;;5.40;86.00;;;;;;5036025;28;20157;-84
2021/03/27 07:11:56;;;;;;;5.83;2.23;;;5.30;86.10;;;;;;5035605;28;20260;-84
2021/03/27 07:14:50;;;;;;;4.10;2.40;;;5.40;86.90;;;;;;5046507;28;20257;-83
2021/03/27 07:17:48;;;;;;;3.27;2.13;;;5.30;87.60;;;;;;5035865;28;20164;-84
2021/03/27 07:20:30;;;;;;;4.63;2.53;;;5.30;87.60;;;;;;5035744;28;20691;-84
2021/03/27 07:23:35;;;;;;;3.13;2.20;;;5.30;87.60;;;;;;5035821;28;20195;-83
2021/03/27 07:26:29;;;;;;;2.70;2.10;;;5.30;87.50;;;;;;5035842;28;20172;-83
2021/03/27 07:29:46;;;;;;;4.97;2.80;;;5.40;87.40;;;;;;5052964;28;20426;-83
2021/03/27 07:32:43;;;;;;;7.80;2.10;;;5.50;87.50;;;;;;5053304;28;20237;-83
2021/03/27 07:35:39;;;;;;;5.60;2.43;;;5.50;87.40;;;;;;5053410;28;20247;-83
2021/03/27 07:38:26;;;;;;;5.70;2.33;;;5.50;87.80;;;;;;5035499;28;20202;-82
2021/03/27 07:41:34;;;;;;;4.13;2.53;;;5.50;87.60;;;;;;5053295;28;20206;-82
2021/03/27 07:44:55;;;;;;;8.83;3.30;;;5.60;87.60;;;;;;5053361;28;20175;-82
2021/03/27 07:47:44;;;;;;;6.00;3.13;;;5.60;87.60;;;;;;4975809;28;20645;-82
2021/03/27 07:50:49;;;;;;;9.50;4.67;;;5.70;88.10;;;;;;5035346;28;20186;-82
2021/03/27 07:53:58;;;;;;;9.97;4.57;;;5.70;88.20;;;;;;5035295;28;20176;-83
2021/03/27 07:56:56;;;;;;;9.33;4.00;;;5.70;87.80;;;;;;5053270;28;20509;-82
2021/03/27 07:59:47;;;;;;;14.70;5.70;;;5.70;88.60;;;;;;5035833;28;20189;-82
2021/03/27 08:02:42;;;;;;;10.33;5.23;;;5.70;88.10;;;;;;5035152;28;20278;-82
2021/03/27 08:05:43;;;;;;;7.80;4.13;;;5.80;88.00;;;;;;5035357;28;20305;-82
2021/03/27 08:08:46;;;;;;;14.90;7.07;;;5.90;88.30;;;;;;5035352;28;20627;-82
2021/03/27 08:11:39;;;;;;;11.50;6.13;;;6.20;88.50;;;;;;5053093;28;20207;-82
2021/03/27 08:14:34;;;;;;;14.67;7.27;;;6.30;88.10;;;;;;5052965;28;20183;-82
2021/03/27 08:17:09;;;;;;;10.03;5.87;;;6.30;87.10;;;;;;5053110;28;20179;-82
2021/03/27 08:20:04;;;;;;;11.53;6.73;;;6.30;87.60;;;;;;5034961;28;20180;-83
2021/03/27 08:22:54;;;;;;;11.87;6.80;;;6.40;87.40;;;;;;5035402;28;20184;-83
2021/03/27 08:25:26;;;;;;;15.53;7.30;;;6.50;87.50;;;;;;5056075;28;20176;-83
2021/03/27 08:28:31;;;;;;;21.47;8.37;;;6.50;87.10;;;;;;5057062;28;20290;-82
2021/03/27 08:31:08;;;;;;;18.87;8.13;;;6.70;87.80;;;;;;5056643;28;20215;-82
2021/03/27 08:33:59;;;;;;;23.70;8.50;;;6.80;86.60;;;;;;5057147;28;20161;-83
2021/03/27 08:36:54;;;;;;;12.00;8.10;;;6.90;87.20;;;;;;5056799;28;20514;-83
2021/03/27 08:40:03;;;;;;;19.90;7.97;;;7.00;87.00;;;;;;5038677;28;20180;-83
2021/03/27 08:42:56;;;;;;;15.47;6.93;;;7.20;86.10;;;;;;5056711;28;20173;-83
2021/03/27 08:45:23;;;;;;;10.17;6.20;;;7.30;84.20;;;;;;5038742;28;20177;-83
2021/03/27 08:48:10;;;;;;;12.40;7.03;;;7.30;83.40;;;;;;5038835;28;20175;-82
2021/03/27 08:50:43;;;;;;;15.73;6.90;;;7.40;83.90;;;;;;5056827;28;20199;-83
2021/03/27 08:53:18;;;;;;;16.33;6.43;;;7.60;85.10;;;;;;5056746;28;20166;-82
2021/03/27 08:56:09;;;;;;;13.73;6.83;;;7.70;83.20;;;;;;5056838;28;20178;-83
2021/03/27 08:58:54;;;;;;;13.93;6.73;;;8.00;83.30;;;;;;5056339;28;20257;-82
2021/03/27 09:01:40;;;;;;;14.90;6.13;;;8.10;82.60;;;;;;5056151;28;20644;-83
2021/03/27 09:04:33;;;;;;;12.07;6.20;;;8.00;82.20;;;;;;5056860;28;20174;-82
2021/03/27 09:07:24;;;;;;;10.53;5.73;;;8.00;80.50;;;;;;5057085;28;20220;-82
2021/03/27 09:10:05;;;;;;;10.27;4.70;;;8.00;81.20;;;;;;5056896;28;20178;-82
2021/03/27 09:13:05;;;;;;;7.60;5.00;;;7.80;79.00;;;;;;5056010;28;20185;-83
2021/03/27 09:15:57;;;;;;;10.30;4.23;;;7.90;80.90;;;;;;5055948;28;20183;-82
2021/03/27 09:18:48;;;;;;;8.53;4.37;;;7.80;79.30;;;;;;5038188;28;20187;-82
2021/03/27 09:21:28;;;;;;;9.40;3.73;;;8.00;79.30;;;;;;5055927;28;20206;-82
2021/03/27 09:24:35;;;;;;;13.97;4.40;;;8.00;79.50;;;;;;5055981;28;20238;-82
2021/03/27 09:27:36;;;;;;;7.77;3.83;;;7.80;78.70;;;;;;5016662;28;20269;-82
2021/03/27 09:30:18;;;;;;;9.27;4.10;;;7.80;78.40;;;;;;5037884;28;20181;-81
2021/03/27 09:33:04;;;;;;;4.97;3.47;;;7.70;78.70;;;;;;5055840;28;20177;-82
2021/03/27 09:35:43;;;;;;;6.40;3.57;;;7.60;79.60;;;;;;5055741;28;20178;-82
2021/03/27 09:38:20;;;;;;;11.47;3.77;;;7.30;81.80;;;;;;5038450;28;20173;-83
2021/03/27 09:41:23;;;;;;;8.10;3.10;;;7.30;82.00;;;;;;5055699;28;20217;-82
2021/03/27 09:44:35;;;;;;;6.87;3.60;;;7.30;82.20;;;;;;5056071;28;20180;-82
2021/03/27 09:47:23;;;;;;;5.70;3.47;;;7.30;82.20;;;;;;5047548;28;20213;-83
2021/03/27 09:50:19;;;;;;;10.40;3.43;;;7.30;82.70;;;;;;5055369;28;20219;-82
2021/03/27 09:53:14;;;;;;;6.07;3.70;;;7.20;81.10;;;;;;5055421;28;20200;-82
2021/03/27 09:56:00;;;;;;;7.30;3.60;;;7.00;81.40;;;;;;5055436;28;20184;-83
2021/03/27 09:58:34;;;;;;;3.80;2.53;;;7.00;81.50;;;;;;5037295;28;20172;-83
2021/03/27 10:01:05;;;;;;;3.40;2.90;;;7.00;81.00;;;;;;5037185;28;20262;-83
2021/03/27 10:04:14;;;;;;;7.90;3.90;;;6.80;81.80;;;;;;5037151;28;20174;-83
2021/03/27 10:07:01;;;;;;;6.37;3.50;;;7.00;83.00;;;;;;5055127;28;20181;-83
2021/03/27 10:09:37;;;;;;;3.70;2.37;;;7.10;82.40;;;;;;5055046;28;20223;-83
2021/03/27 10:12:13;;;;;;;4.37;3.30;;;7.10;81.50;;;;;;5054942;28;20611;-83
2021/03/27 10:14:50;;;;;;;8.37;3.30;;;7.10;83.80;;;;;;5055311;28;20231;-83
2021/03/27 10:17:48;;;;;;;7.77;4.23;;;6.90;83.70;;;;;;5037296;28;20173;-84
2021/03/27 10:20:25;;;;;;;3.87;3.10;;;6.80;84.90;;;;;;5023406;28;20221;-85
2021/03/27 10:23:16;;;;;;;5.03;3.60;;;6.70;85.40;;;;;;5037093;28;20548;-85
2021/03/27 10:26:04;;;;;;;8.27;4.57;;;6.40;85.00;;;;;;5036865;28;20263;-84
2021/03/27 10:28:47;;;;;;;5.50;2.87;;;6.50;85.80;;;;;;5055085;28;20173;-83
2021/03/27 10:31:18;;;;;;;4.57;2.50;;;6.70;86.50;;;;;;5060859;23;20277;-83
2021/03/27 10:34:16;;;;;;;4.63;2.27;;;6.80;85.20;;;;;;5073832;28;20252;-83
2021/03/27 10:36:54;;;;;;;3.93;2.07;;;7.00;85.10;;;;;;5074671;28;20682;-83
2021/03/27 10:39:53;;;;;;;3.87;1.90;;;7.20;85.00;;;;;;5075444;28;20149;-82
2021/03/27 10:42:44;;;;;;;4.90;2.10;;;7.30;84.80;;;;;;5073769;28;20312;-81
2021/03/27 10:45:37;;;;;;;3.20;2.00;;;7.20;84.00;;;;;;5074278;28;20178;-81
2021/03/27 10:48:08;;;;;;;5.83;2.07;;;7.00;83.60;;;;;;5073579;28;20551;-81
2021/03/27 10:50:58;;;;;;;6.63;1.83;;;7.00;82.80;;;;;;5074152;28;20188;-81
2021/03/27 10:53:52;;;;;;;8.37;2.50;;;7.10;83.50;;;;;;5073964;28;20201;-81
2021/03/27 10:56:59;;;;;;;5.97;1.80;;;7.40;82.50;;;;;;5056131;28;20238;-81
2021/03/27 10:59:37;;;;;;;5.37;2.43;;;7.60;81.70;;;;;;5073953;28;20186;-81
2021/03/27 11:02:17;;;;;;;6.17;2.20;;;7.80;80.10;;;;;;5074272;28;20623;-81
2021/03/27 11:05:14;;;;;;;13.63;3.23;;;8.00;79.60;;;;;;5074036;28;20546;-81
2021/03/27 11:07:54;;;;;;;9.43;3.20;;;8.20;79.10;;;;;;5074004;28;20178;-81
2021/03/27 11:10:51;;;;;;;12.63;2.53;;;8.10;78.70;;;;;;5073745;28;20260;-82
2021/03/27 11:13:40;;;;;;;5.03;2.03;;;8.20;79.10;;;;;;5073933;28;20211;-82
2021/03/27 11:16:42;;;;;;;8.50;2.60;;;8.30;78.60;;;;;;5073745;28;20635;-82
2021/03/27 11:19:34;;;;;;;15.37;4.17;;;8.40;78.80;;;;;;5074478;28;20253;-81
2021/03/27 11:22:33;;;;;;;9.50;2.97;;;8.70;77.30;;;;;;5055798;28;20207;-82
2021/03/27 11:25:38;;;;;;;12.50;3.17;;;8.70;75.90;;;;;;5073631;28;20174;-81
2021/03/27 11:28:37;;;;;;;14.80;3.00;;;8.70;74.20;;;;;;5073862;28;20581;-82
2021/03/27 11:31:15;;;;;;;8.87;2.70;;;8.70;73.70;;;;;;5056046;28;20175;-82
2021/03/27 11:33:57;;;;;;;12.90;3.10;;;7.90;72.60;;;;;;5055596;28;20219;-81
2021/03/27 11:36:38;;;;;;;18.30;4.20;;;7.00;77.00;;;;;;5073661;28;20256;-82
2021/03/27 11:39:34;;;;;;;11.70;2.70;;;6.60;79.00;;;;;;5073404;28;20177;-82
2021/03/27 11:42:38;;;;;;;19.97;4.17;;;6.40;80.50;;;;;;5073416;28;20286;-81
2021/03/27 11:45:16;;;;;;;16.80;3.23;;;5.80;81.90;;;;;;5073354;28;20174;-81
2021/03/27 11:48:03;;;;;;;10.10;3.10;;;5.50;82.70;;;;;;5055673;28;20201;-81
2021/03/27 11:50:56;;;;;;;16.07;3.33;;;5.40;84.30;;;;;;5074049;28;20164;-82
2021/03/27 11:53:41;;;;;;;17.37;3.37;;;5.40;84.50;;;;;;5055102;28;20741;-82
2021/03/27 11:56:24;;;;;;;17.17;3.03;;;5.50;84.20;;;;;;5073169;28;20171;-81
2021/03/27 12:02:17;;;;;;;22.57;5.40;;;5.80;84.60;;;;;;5073621;28;20291;-82
2021/03/27 12:04:56;;;;;;;16.50;2.70;;;5.80;84.20;;;;;;5073953;28;20658;-82
2021/03/27 12:07:46;;;;;;;15.87;3.53;;;5.80;83.90;;;;;;5073147;28;20182;-82
2021/03/27 12:10:43;;;;;;;17.63;4.10;;;5.80;83.10;;;;;;5073404;28;20206;-81
2021/03/27 12:13:38;;;;;;;16.60;4.27;;;5.90;83.80;;;;;;5073531;28;20241;-82
2021/03/27 12:16:34;;;;;;;17.07;2.90;;;6.10;83.80;;;;;;5073511;28;20179;-82
2021/03/27 12:19:22;;;;;;;19.77;3.53;;;6.20;83.40;;;;;;5073275;28;20191;-82
2021/03/27 12:22:26;;;;;;;18.63;4.47;;;6.20;83.00;;;;;;5073038;28;20238;-81
2021/03/27 12:25:29;;;;;;;16.47;3.30;;;6.30;82.80;;;;;;5074188;28;20164;-81
2021/03/27 12:28:26;;;;;;;22.87;4.23;;;6.40;82.70;;;;;;5019861;28;20189;-81
2021/03/27 12:31:05;;;;;;;26.30;4.63;;;6.50;83.10;;;;;;5055104;28;20192;-82
2021/03/27 12:34:05;;;;;;;23.73;5.43;;;6.60;82.50;;;;;;5073102;28;20242;-81
2021/03/27 12:37:10;;;;;;;18.03;4.03;;;6.80;82.20;;;;;;5055445;28;20643;-81
2021/03/27 12:39:55;;;;;;;26.57;4.47;;;7.00;83.90;;;;;;5042073;28;20563;-82
2021/03/27 12:42:27;;;;;;;21.30;4.80;;;7.30;82.90;;;;;;5073451;28;20204;-81
2021/03/27 12:44:58;;;;;;;15.87;4.23;;;7.30;82.40;;;;;;5072938;28;20179;-81
2021/03/27 12:47:44;;;;;;;20.90;4.67;;;7.50;82.40;;;;;;5073385;28;20158;-82
2021/03/27 12:50:35;;;;;;;22.77;6.13;;;7.70;81.50;;;;;;5073279;28;20172;-82
2021/03/27 12:53:05;;;;;;;23.63;4.33;;;7.90;80.90;;;;;;5072913;28;20202;-82
2021/03/27 12:56:08;;;;;;;12.77;3.77;;;8.00;76.70;;;;;;5055355;28;20183;-81
2021/03/27 12:59:02;;;;;;;17.87;3.37;;;8.00;73.70;;;;;;5073202;28;20650;-81
2021/03/27 13:01:37;;;;;;;12.60;3.43;;;7.90;73.10;;;;;;5056132;28;20214;-82
2021/03/27 13:04:32;;;;;;;17.47;3.70;;;7.90;73.10;;;;;;5073623;28;20184;-82
2021/03/27 13:07:23;;;;;;;13.50;3.67;;;8.00;74.10;;;;;;5073027;28;20659;-82
2021/03/27 13:10:14;;;;;;;23.17;3.67;;;8.10;73.00;;;;;;5073444;28;20178;-81
2021/03/27 13:13:10;;;;;;;22.30;3.43;;;8.20;72.00;;;;;;5058271;28;20194;-82
2021/03/27 13:15:48;;;;;;;20.43;3.97;;;8.30;70.40;;;;;;5076554;28;20214;-82
2021/03/27 13:18:24;;;;;;;13.63;2.70;;;8.60;72.50;;;;;;5058568;28;20213;-82
2021/03/27 13:20:54;;;;;;;20.83;5.60;;;8.80;70.10;;;;;;5076276;28;20711;-81
2021/03/27 13:23:26;;;;;;;10.67;3.70;;;8.80;71.60;;;;;;5076083;28;20563;-82
2021/03/27 13:26:04;;;;;;;19.10;3.77;;;8.60;66.90;;;;;;5076234;28;20175;-81
2021/03/27 13:28:38;;;;;;;13.90;3.80;;;8.50;68.50;;;;;;5076087;28;20176;-81
2021/03/27 13:31:14;;;;;;;15.80;3.43;;;8.80;70.30;;;;;;5076919;28;20762;-81
2021/03/27 13:34:07;;;;;;;21.20;4.27;;;8.70;67.40;;;;;;5077144;28;20175;-82
2021/03/27 13:36:41;;;;;;;15.20;4.47;;;8.70;67.80;;;;;;5057960;28;20210;-81
2021/03/27 13:39:28;;;;;;;21.87;4.40;;;8.40;68.30;;;;;;5058096;28;20179;-81
2021/03/27 13:42:25;;;;;;;20.57;3.97;;;8.30;69.20;;;;;;5057747;28;20698;-83
2021/03/27 13:45:21;;;;;;;16.63;3.20;;;8.40;68.90;;;;;;5058275;28;20591;-81
2021/03/27 13:47:55;;;;;;;16.80;4.37;;;8.60;65.50;;;;;;5058033;28;20620;-81
2021/03/27 13:50:48;;;;;;;15.73;3.60;;;8.60;65.40;;;;;;5076580;28;20208;-81
2021/03/27 13:53:42;;;;;;;14.47;3.73;;;8.50;63.70;;;;;;5075622;28;20618;-82
2021/03/27 13:56:24;;;;;;;17.17;3.37;;;8.60;65.30;;;;;;5075610;28;20172;-81
2021/03/27 13:59:11;;;;;;;17.17;3.60;;;8.50;65.40;;;;;;5057967;28;20190;-80
2021/03/27 14:01:46;;;;;;;15.70;4.47;;;8.60;66.10;;;;;;5057964;28;20211;-82
2021/03/27 14:04:30;;;;;;;18.20;4.23;;;8.70;63.30;;;;;;5075265;28;20256;-81
2021/03/27 14:07:03;;;;;;;17.87;3.73;;;8.40;64.30;;;;;;5057236;28;20170;-81
2021/03/27 14:09:49;;;;;;;14.00;3.50;;;8.20;65.10;;;;;;5057091;28;20227;-81
2021/03/27 14:12:38;;;;;;;25.47;5.03;;;8.00;65.90;;;;;;5057167;28;20188;-81
2021/03/27 14:15:06;;;;;;;17.83;4.20;;;7.90;68.80;;;;;;5075354;28;20170;-81
2021/03/27 14:17:52;;;;;;;17.27;4.90;;;8.00;69.10;;;;;;5075370;28;20178;-81
2021/03/27 14:20:38;;;;;;;30.17;4.50;;;8.40;68.80;;;;;;5075001;28;20563;-81
2021/03/27 14:23:28;;;;;;;17.67;3.53;;;8.50;67.70;;;;;;5056818;28;20280;-80
2021/03/27 14:26:15;;;;;;;27.23;4.97;;;8.00;66.40;;;;;;5054753;28;20191;-81
2021/03/27 14:28:50;;;;;;;19.50;4.17;;;8.00;68.20;;;;;;5056873;28;20174;-81
2021/03/27 14:31:46;;;;;;;18.20;4.30;;;8.10;69.90;;;;;;5056751;28;20260;-80
2021/03/27 14:34:24;;;;;;;17.57;3.47;;;8.50;69.00;;;;;;5074664;28;20182;-80
2021/03/27 14:37:13;;;;;;;15.30;4.43;;;8.70;68.00;;;;;;5074615;28;20220;-81
2021/03/27 14:39:58;;;;;;;17.17;4.83;;;8.70;67.10;;;;;;5074500;28;20647;-81
2021/03/27 14:42:33;;;;;;;8.77;2.83;;;8.70;65.20;;;;;;5058492;28;20191;-81
2021/03/27 14:45:20;;;;;;;8.73;3.60;;;8.60;62.00;;;;;;5074997;28;20259;-80